createdAt,value
2018-05-26T00:00:23.888Z,19.24
2018-05-26T00:01:29.405Z,19.28
2018-05-26T00:02:34.916Z,19.28
2018-05-26T00:03:41.461Z,19.18
2018-05-26T00:04:45.969Z,19.10
2018-05-26T00:05:51.461Z,19.10
2018-05-26T00:06:56.983Z,19.10
2018-05-26T00:08:02.495Z,19.06
2018-05-26T00:09:08.028Z,18.99
2018-05-26T00:10:14.551Z,18.91
2018-05-26T00:11:19.055Z,18.95
2018-05-26T00:12:24.566Z,18.94
2018-05-26T00:13:30.082Z,18.90
2018-05-26T00:14:35.598Z,18.92
2018-05-26T00:15:41.137Z,18.91
2018-05-26T00:16:47.656Z,18.77
2018-05-26T00:17:52.164Z,18.82
2018-05-26T00:18:57.667Z,18.84
2018-05-26T00:20:03.191Z,18.79
2018-05-26T00:21:08.695Z,18.76
2018-05-26T00:22:14.226Z,18.79
2018-05-26T00:23:20.761Z,18.76
2018-05-26T00:24:25.260Z,18.64
2018-05-26T00:25:30.822Z,18.70
2018-05-26T00:26:36.295Z,18.73
2018-05-26T00:27:41.801Z,18.67
2018-05-26T00:28:47.323Z,18.68
2018-05-26T00:29:53.847Z,18.73
2018-05-26T00:30:58.431Z,18.61
2018-05-26T00:32:03.867Z,18.73
2018-05-26T00:33:09.383Z,18.61
2018-05-26T00:34:14.916Z,18.65
2018-05-26T00:35:20.415Z,18.70
2018-05-26T00:36:26.946Z,18.62
2018-05-26T00:37:31.447Z,18.62
2018-05-26T00:38:36.979Z,18.61
2018-05-26T00:39:42.488Z,18.74
2018-05-26T00:40:48.000Z,18.64
2018-05-26T00:41:53.531Z,18.57
2018-05-26T00:43:00.052Z,18.57
2018-05-26T00:44:04.553Z,18.58
2018-05-26T00:45:10.063Z,18.58
2018-05-26T00:46:15.576Z,18.57
2018-05-26T00:47:21.107Z,18.55
2018-05-26T00:48:26.617Z,18.59
2018-05-26T00:49:33.145Z,18.62
2018-05-26T00:50:37.645Z,18.57
2018-05-26T00:51:43.167Z,18.55
2018-05-26T00:52:48.687Z,18.59
2018-05-26T00:53:54.194Z,18.57
2018-05-26T00:54:59.707Z,18.54
2018-05-26T00:56:06.261Z,18.62
2018-05-26T00:57:10.740Z,18.57
2018-05-26T00:58:16.294Z,18.55
2018-05-26T00:59:21.796Z,18.49
2018-05-26T01:00:27.330Z,18.47
2018-05-26T01:01:32.811Z,18.54
2018-05-26T01:02:39.337Z,18.52
2018-05-26T01:03:43.911Z,18.46
2018-05-26T01:04:49.365Z,18.46
2018-05-26T01:05:54.877Z,18.50
2018-05-26T01:07:00.422Z,18.49
2018-05-26T01:08:05.906Z,18.44
2018-05-26T01:09:12.440Z,18.52
2018-05-26T01:10:16.960Z,18.42
2018-05-26T01:11:22.462Z,18.42
2018-05-26T01:12:27.970Z,18.36
2018-05-26T01:13:33.490Z,18.44
2018-05-26T01:14:39.010Z,18.40
2018-05-26T01:15:45.542Z,18.36
2018-05-26T01:16:50.043Z,18.36
2018-05-26T01:17:55.566Z,18.33
2018-05-26T01:19:01.074Z,18.33
2018-05-26T01:20:06.593Z,18.33
2018-05-26T01:21:12.104Z,18.28
2018-05-26T01:22:18.634Z,18.34
2018-05-26T01:23:23.141Z,18.40
2018-05-26T01:24:28.658Z,18.28
2018-05-26T01:25:34.171Z,18.28
2018-05-26T01:26:39.710Z,18.31
2018-05-26T01:27:45.201Z,18.31
2018-05-26T01:28:51.722Z,18.31
2018-05-26T01:29:56.236Z,18.25
2018-05-26T01:31:01.760Z,18.24
2018-05-26T01:32:07.269Z,18.22
2018-05-26T01:33:12.785Z,18.24
2018-05-26T01:34:18.303Z,18.21
2018-05-26T01:35:24.828Z,18.21
2018-05-26T01:36:29.338Z,18.25
2018-05-26T01:37:34.849Z,18.25
2018-05-26T01:38:40.418Z,18.27
2018-05-26T01:39:45.888Z,18.28
2018-05-26T01:40:51.427Z,18.18
2018-05-26T01:41:57.931Z,18.15
2018-05-26T01:43:02.448Z,18.13
2018-05-26T01:44:07.947Z,18.27
2018-05-26T01:45:13.459Z,18.17
2018-05-26T01:46:19.000Z,18.12
2018-05-26T01:47:24.503Z,18.09
2018-05-26T01:48:31.029Z,18.18
2018-05-26T01:49:35.534Z,18.12
2018-05-26T01:50:41.053Z,18.13
2018-05-26T01:51:46.557Z,18.18
2018-05-26T01:52:52.075Z,18.10
2018-05-26T01:53:57.598Z,18.03
2018-05-26T01:55:04.117Z,18.02
2018-05-26T01:56:08.625Z,18.00
2018-05-26T01:57:14.144Z,18.06
2018-05-26T01:58:19.685Z,18.04
2018-05-26T01:59:25.176Z,18.04
2018-05-26T02:00:30.692Z,18.03
2018-05-26T02:01:37.211Z,18.03
2018-05-26T02:02:41.726Z,18.02
2018-05-26T02:03:47.240Z,18.09
2018-05-26T02:04:52.756Z,18.03
2018-05-26T02:05:58.286Z,18.03
2018-05-26T02:07:03.782Z,18.03
2018-05-26T02:08:10.311Z,17.99
2018-05-26T02:09:14.827Z,18.02
2018-05-26T02:10:20.330Z,18.02
2018-05-26T02:11:25.857Z,18.02
2018-05-26T02:12:31.382Z,18.03
2018-05-26T02:13:36.894Z,18.03
2018-05-26T02:14:43.459Z,18.03
2018-05-26T02:15:48.033Z,18.07
2018-05-26T02:16:53.429Z,17.94
2018-05-26T02:17:58.942Z,18.00
2018-05-26T02:19:04.473Z,17.89
2018-05-26T02:20:09.986Z,17.97
2018-05-26T02:21:16.515Z,17.94
2018-05-26T02:22:21.010Z,18.03
2018-05-26T02:23:26.530Z,17.94
2018-05-26T02:24:32.052Z,18.06
2018-05-26T02:25:37.574Z,17.94
2018-05-26T02:26:43.079Z,17.97
2018-05-26T02:27:49.609Z,17.97
2018-05-26T02:28:54.106Z,17.85
2018-05-26T02:29:59.629Z,17.84
2018-05-26T02:31:05.147Z,18.02
2018-05-26T02:32:10.650Z,18.02
2018-05-26T02:33:16.171Z,17.92
2018-05-26T02:34:22.699Z,17.92
2018-05-26T02:35:27.198Z,17.91
2018-05-26T02:36:32.722Z,17.82
2018-05-26T02:37:38.237Z,17.89
2018-05-26T02:38:43.760Z,17.87
2018-05-26T02:39:49.267Z,17.82
2018-05-26T02:40:55.805Z,17.84
2018-05-26T02:42:00.320Z,17.79
2018-05-26T02:43:05.813Z,17.79
2018-05-26T02:44:11.330Z,17.74
2018-05-26T02:45:16.845Z,17.78
2018-05-26T02:46:22.385Z,17.79
2018-05-26T02:47:28.906Z,17.82
2018-05-26T02:48:33.399Z,17.78
2018-05-26T02:49:38.915Z,17.82
2018-05-26T02:50:44.426Z,17.79
2018-05-26T02:51:49.953Z,17.78
2018-05-26T02:52:55.467Z,17.78
2018-05-26T02:54:01.994Z,17.70
2018-05-26T02:55:06.488Z,17.71
2018-05-26T02:56:12.009Z,17.71
2018-05-26T02:57:17.530Z,17.71
2018-05-26T02:58:23.047Z,17.70
2018-05-26T02:59:28.557Z,17.70
2018-05-26T03:00:35.080Z,17.69
2018-05-26T03:01:39.582Z,17.69
2018-05-26T03:02:45.105Z,17.67
2018-05-26T03:03:50.620Z,17.63
2018-05-26T03:04:56.137Z,17.55
2018-05-26T03:06:01.660Z,17.66
2018-05-26T03:07:08.181Z,17.59
2018-05-26T03:08:12.685Z,17.62
2018-05-26T03:09:18.201Z,17.55
2018-05-26T03:10:23.724Z,17.55
2018-05-26T03:11:29.233Z,17.50
2018-05-26T03:12:34.750Z,17.59
2018-05-26T03:13:41.271Z,17.46
2018-05-26T03:14:45.780Z,17.54
2018-05-26T03:15:51.302Z,17.44
2018-05-26T03:16:56.820Z,17.53
2018-05-26T03:18:02.332Z,17.47
2018-05-26T03:19:07.859Z,17.46
2018-05-26T03:20:14.367Z,17.53
2018-05-26T03:21:18.868Z,17.51
2018-05-26T03:22:24.393Z,17.53
2018-05-26T03:23:29.913Z,17.50
2018-05-26T03:24:35.423Z,17.51
2018-05-26T03:25:40.956Z,17.50
2018-05-26T03:26:47.476Z,17.50
2018-05-26T03:27:51.963Z,17.41
2018-05-26T03:28:57.575Z,17.44
2018-05-26T03:30:03.001Z,17.43
2018-05-26T03:31:08.513Z,17.41
2018-05-26T03:32:14.027Z,17.50
2018-05-26T03:33:20.552Z,17.40
2018-05-26T03:34:25.055Z,17.50
2018-05-26T03:35:30.579Z,17.51
2018-05-26T03:36:36.091Z,17.38
2018-05-26T03:37:41.611Z,17.38
2018-05-26T03:38:47.121Z,17.46
2018-05-26T03:39:53.649Z,17.38
2018-05-26T03:40:58.183Z,17.44
2018-05-26T03:42:03.664Z,17.44
2018-05-26T03:43:09.183Z,17.38
2018-05-26T03:44:14.698Z,17.35
2018-05-26T03:45:20.212Z,17.38
2018-05-26T03:46:26.760Z,17.36
2018-05-26T03:47:31.253Z,17.43
2018-05-26T03:48:36.777Z,17.40
2018-05-26T03:49:42.287Z,17.38
2018-05-26T03:50:47.795Z,17.41
2018-05-26T03:51:53.319Z,17.50
2018-05-26T03:52:59.839Z,17.50
2018-05-26T03:54:04.346Z,17.53
2018-05-26T03:55:09.856Z,17.51
2018-05-26T03:56:15.383Z,17.53
2018-05-26T03:57:20.888Z,17.63
2018-05-26T03:58:26.401Z,17.63
2018-05-26T03:59:32.931Z,17.62
2018-05-26T04:00:37.435Z,17.69
2018-05-26T04:01:42.952Z,17.69
2018-05-26T04:02:48.471Z,17.70
2018-05-26T04:03:53.984Z,17.71
2018-05-26T04:04:59.507Z,17.76
2018-05-26T04:06:06.076Z,17.82
2018-05-26T04:07:10.539Z,17.79
2018-05-26T04:08:16.049Z,17.85
2018-05-26T04:09:21.560Z,17.87
2018-05-26T04:10:27.082Z,17.91
2018-05-26T04:11:32.594Z,17.87
2018-05-26T04:12:39.122Z,17.87
2018-05-26T04:13:43.626Z,17.91
2018-05-26T04:14:49.145Z,17.88
2018-05-26T04:15:54.655Z,18.03
2018-05-26T04:17:00.177Z,17.88
2018-05-26T04:18:05.688Z,17.92
2018-05-26T04:19:12.216Z,17.94
2018-05-26T04:20:16.723Z,18.02
2018-05-26T04:21:22.241Z,17.92
2018-05-26T04:22:27.753Z,17.85
2018-05-26T04:23:33.264Z,17.99
2018-05-26T04:24:38.784Z,18.04
2018-05-26T04:25:45.307Z,17.97
2018-05-26T04:26:49.849Z,18.04
2018-05-26T04:27:55.329Z,17.97
2018-05-26T04:29:00.853Z,18.02
2018-05-26T04:30:06.367Z,18.04
2018-05-26T04:31:11.883Z,18.00
2018-05-26T04:32:18.408Z,18.13
2018-05-26T04:33:22.906Z,18.15
2018-05-26T04:34:28.435Z,18.18
2018-05-26T04:35:33.940Z,18.17
2018-05-26T04:36:39.459Z,18.12
2018-05-26T04:37:45.082Z,18.24
2018-05-26T04:38:51.513Z,18.21
2018-05-26T04:39:56.017Z,18.22
2018-05-26T04:41:01.542Z,18.24
2018-05-26T04:42:07.036Z,18.28
2018-05-26T04:43:12.561Z,18.39
2018-05-26T04:44:18.074Z,18.33
2018-05-26T04:45:24.606Z,18.37
2018-05-26T04:46:29.119Z,18.40
2018-05-26T04:47:34.620Z,18.46
2018-05-26T04:48:40.137Z,18.44
2018-05-26T04:49:45.656Z,18.47
2018-05-26T04:50:51.170Z,18.47
2018-05-26T04:51:57.692Z,18.52
2018-05-26T04:53:02.209Z,18.54
2018-05-26T04:54:07.727Z,18.52
2018-05-26T04:55:13.230Z,18.52
2018-05-26T04:56:18.753Z,18.58
2018-05-26T04:57:24.264Z,18.54
2018-05-26T04:58:30.791Z,18.54
2018-05-26T04:59:35.299Z,18.55
2018-05-26T05:00:40.816Z,18.62
2018-05-26T05:01:46.327Z,18.67
2018-05-26T05:02:51.850Z,18.74
2018-05-26T05:03:57.357Z,18.64
2018-05-26T05:05:03.903Z,18.64
2018-05-26T05:06:08.403Z,18.65
2018-05-26T05:07:13.910Z,18.70
2018-05-26T05:08:19.431Z,18.79
2018-05-26T05:09:25.054Z,18.83
2018-05-26T05:10:30.468Z,18.86
2018-05-26T05:11:37.088Z,18.84
2018-05-26T05:12:41.595Z,18.80
2018-05-26T05:13:47.005Z,18.92
2018-05-26T05:14:52.557Z,18.90
2018-05-26T05:15:58.044Z,18.94
2018-05-26T05:17:03.563Z,18.92
2018-05-26T05:18:10.099Z,18.87
2018-05-26T05:19:14.589Z,18.99
2018-05-26T05:20:20.111Z,18.94
2018-05-26T05:21:25.625Z,19.02
2018-05-26T05:22:31.144Z,19.05
2018-05-26T05:23:36.667Z,19.15
2018-05-26T05:24:43.186Z,19.01
2018-05-26T05:25:47.694Z,19.13
2018-05-26T05:26:53.217Z,19.18
2018-05-26T05:27:58.726Z,19.13
2018-05-26T05:29:04.242Z,19.18
2018-05-26T05:30:09.761Z,19.17
2018-05-26T05:31:16.284Z,19.17
2018-05-26T05:32:20.791Z,19.25
2018-05-26T05:33:26.308Z,19.35
2018-05-26T05:34:31.824Z,19.35
2018-05-26T05:35:37.337Z,19.32
2018-05-26T05:36:42.855Z,19.35
2018-05-26T05:37:49.405Z,19.40
2018-05-26T05:38:53.888Z,19.42
2018-05-26T05:39:59.411Z,19.36
2018-05-26T05:41:04.930Z,19.40
2018-05-26T05:42:10.437Z,19.36
2018-05-26T05:43:15.959Z,19.43
2018-05-26T05:44:22.488Z,19.46
2018-05-26T05:45:26.991Z,19.50
2018-05-26T05:46:32.513Z,19.43
2018-05-26T05:47:38.058Z,19.58
2018-05-26T05:48:43.548Z,19.65
2018-05-26T05:49:49.146Z,19.61
2018-05-26T05:50:55.626Z,19.68
2018-05-26T05:52:00.101Z,19.66
2018-05-26T05:53:05.661Z,19.69
2018-05-26T05:54:11.129Z,19.70
2018-05-26T05:55:16.642Z,19.73
2018-05-26T05:56:22.223Z,19.83
2018-05-26T05:57:28.683Z,19.75
2018-05-26T05:58:33.192Z,19.79
2018-05-26T05:59:38.720Z,19.76
2018-05-26T06:00:44.220Z,19.80
2018-05-26T06:01:49.747Z,19.80
2018-05-26T06:02:55.267Z,19.83
2018-05-26T06:04:01.787Z,19.91
2018-05-26T06:05:06.293Z,19.86
2018-05-26T06:06:11.816Z,19.98
2018-05-26T06:07:17.345Z,19.93
2018-05-26T06:08:22.851Z,19.97
2018-05-26T06:09:28.369Z,19.98
2018-05-26T06:10:34.890Z,20.08
2018-05-26T06:11:39.408Z,20.03
2018-05-26T06:12:44.911Z,20.02
2018-05-26T06:13:50.438Z,20.18
2018-05-26T06:14:55.984Z,20.16
2018-05-26T06:16:01.464Z,20.16
2018-05-26T06:17:07.994Z,20.28
2018-05-26T06:18:12.509Z,20.35
2018-05-26T06:19:18.031Z,20.34
2018-05-26T06:20:23.542Z,20.47
2018-05-26T06:21:29.049Z,20.51
2018-05-26T06:22:34.593Z,20.62
2018-05-26T06:23:41.113Z,20.69
2018-05-26T06:24:45.605Z,20.74
2018-05-26T06:25:51.178Z,20.80
2018-05-26T06:26:56.636Z,20.83
2018-05-26T06:28:02.163Z,21.01
2018-05-26T06:29:07.674Z,21.06
2018-05-26T06:30:14.203Z,21.08
2018-05-26T06:31:18.722Z,21.21
2018-05-26T06:32:24.235Z,21.26
2018-05-26T06:33:29.755Z,21.29
2018-05-26T06:34:35.275Z,21.27
2018-05-26T06:35:40.777Z,21.30
2018-05-26T06:36:47.309Z,21.32
2018-05-26T06:37:51.810Z,21.35
2018-05-26T06:38:57.334Z,21.39
2018-05-26T06:40:02.852Z,21.38
2018-05-26T06:41:08.381Z,21.35
2018-05-26T06:42:13.896Z,21.36
2018-05-26T06:43:20.411Z,21.30
2018-05-26T06:44:24.924Z,21.44
2018-05-26T06:45:30.431Z,21.44
2018-05-26T06:46:35.966Z,21.42
2018-05-26T06:47:41.478Z,21.44
2018-05-26T06:48:47.000Z,21.54
2018-05-26T06:49:53.524Z,21.61
2018-05-26T06:50:58.042Z,21.60
2018-05-26T06:52:03.553Z,21.61
2018-05-26T06:53:09.091Z,21.63
2018-05-26T06:54:14.578Z,21.67
2018-05-26T06:55:20.099Z,21.72
2018-05-26T06:56:26.648Z,21.71
2018-05-26T06:57:31.158Z,21.75
2018-05-26T06:58:36.666Z,21.82
2018-05-26T06:59:42.174Z,21.88
2018-05-26T07:00:47.723Z,21.94
2018-05-26T07:01:53.218Z,21.99
2018-05-26T07:02:59.747Z,21.94
2018-05-26T07:04:04.243Z,21.97
2018-05-26T07:05:09.777Z,22.02
2018-05-26T07:06:15.296Z,22.06
2018-05-26T07:07:20.794Z,22.09
2018-05-26T07:08:26.317Z,22.02
2018-05-26T07:09:32.849Z,22.12
2018-05-26T07:10:37.362Z,22.13
2018-05-26T07:11:42.894Z,22.22
2018-05-26T07:12:48.397Z,22.12
2018-05-26T07:13:53.906Z,22.22
2018-05-26T07:14:59.432Z,22.23
2018-05-26T07:16:05.957Z,22.29
2018-05-26T07:17:10.471Z,22.37
2018-05-26T07:18:15.986Z,22.37
2018-05-26T07:19:21.501Z,22.35
2018-05-26T07:20:27.020Z,22.47
2018-05-26T07:21:32.546Z,22.39
2018-05-26T07:22:39.080Z,22.53
2018-05-26T07:23:43.592Z,22.52
2018-05-26T07:24:49.170Z,22.53
2018-05-26T07:25:54.619Z,22.64
2018-05-26T07:27:00.124Z,22.60
2018-05-26T07:28:05.645Z,22.65
2018-05-26T07:29:12.178Z,22.78
2018-05-26T07:30:16.749Z,22.78
2018-05-26T07:31:22.213Z,22.82
2018-05-26T07:32:27.724Z,22.80
2018-05-26T07:33:33.246Z,22.90
2018-05-26T07:34:38.768Z,22.93
2018-05-26T07:35:45.298Z,22.97
2018-05-26T07:36:49.804Z,22.96
2018-05-26T07:37:55.326Z,22.92
2018-05-26T07:39:00.865Z,23.04
2018-05-26T07:40:06.364Z,23.05
2018-05-26T07:41:11.879Z,23.23
2018-05-26T07:42:18.413Z,23.23
2018-05-26T07:43:22.910Z,23.20
2018-05-26T07:44:28.430Z,23.24
2018-05-26T07:45:33.951Z,23.27
2018-05-26T07:46:39.473Z,23.38
2018-05-26T07:47:44.991Z,23.32
2018-05-26T07:48:51.537Z,23.38
2018-05-26T07:49:56.042Z,23.42
2018-05-26T07:51:01.554Z,23.43
2018-05-26T07:52:07.067Z,23.43
2018-05-26T07:53:12.634Z,23.52
2018-05-26T07:54:18.113Z,23.53
2018-05-26T07:55:24.647Z,23.60
2018-05-26T07:56:29.153Z,23.62
2018-05-26T07:57:34.665Z,23.67
2018-05-26T07:58:40.192Z,23.62
2018-05-26T07:59:45.705Z,23.75
2018-05-26T08:00:51.231Z,23.76
2018-05-26T08:01:57.744Z,23.83
2018-05-26T08:03:02.254Z,23.75
2018-05-26T08:04:07.783Z,23.79
2018-05-26T08:05:13.426Z,23.87
2018-05-26T08:06:18.942Z,23.94
2018-05-26T08:07:24.349Z,24.00
2018-05-26T08:08:30.877Z,24.00
2018-05-26T08:09:35.372Z,24.00
2018-05-26T08:10:40.902Z,24.00
2018-05-26T08:11:46.420Z,24.08
2018-05-26T08:12:51.951Z,24.08
2018-05-26T08:13:57.446Z,24.16
2018-05-26T08:15:03.982Z,24.16
2018-05-26T08:16:08.506Z,24.17
2018-05-26T08:17:14.078Z,24.24
2018-05-26T08:18:19.529Z,24.26
2018-05-26T08:19:25.052Z,24.34
2018-05-26T08:20:30.576Z,24.34
2018-05-26T08:21:37.110Z,24.35
2018-05-26T08:22:41.611Z,24.44
2018-05-26T08:23:47.130Z,24.41
2018-05-26T08:24:52.644Z,24.45
2018-05-26T08:25:58.178Z,24.42
2018-05-26T08:27:03.688Z,24.44
2018-05-26T08:28:10.221Z,24.56
2018-05-26T08:29:14.736Z,24.47
2018-05-26T08:30:20.244Z,24.56
2018-05-26T08:31:25.769Z,24.56
2018-05-26T08:32:31.287Z,24.60
2018-05-26T08:33:36.821Z,24.73
2018-05-26T08:34:43.465Z,24.69
2018-05-26T08:35:47.995Z,24.76
2018-05-26T08:36:53.372Z,24.79
2018-05-26T08:37:58.894Z,24.83
2018-05-26T08:39:04.412Z,24.83
2018-05-26T08:40:09.942Z,24.88
2018-05-26T08:41:16.456Z,24.98
2018-05-26T08:42:20.972Z,24.98
2018-05-26T08:43:26.487Z,24.98
2018-05-26T08:44:32.006Z,25.09
2018-05-26T08:45:37.520Z,25.05
2018-05-26T08:46:43.051Z,25.09
2018-05-26T08:47:49.600Z,25.09
2018-05-26T08:48:54.091Z,25.15
2018-05-26T08:49:59.599Z,25.22
2018-05-26T08:51:05.136Z,25.31
2018-05-26T08:52:10.639Z,25.30
2018-05-26T08:53:16.177Z,25.35
2018-05-26T08:54:22.701Z,25.30
2018-05-26T08:55:27.200Z,25.37
2018-05-26T08:56:32.744Z,25.37
2018-05-26T08:57:38.246Z,25.47
2018-05-26T08:58:43.770Z,25.46
2018-05-26T08:59:49.291Z,25.53
2018-05-26T09:00:55.814Z,25.57
2018-05-26T09:02:00.343Z,25.59
2018-05-26T09:03:05.848Z,25.67
2018-05-26T09:04:11.375Z,25.68
2018-05-26T09:05:16.919Z,25.72
2018-05-26T09:06:22.436Z,25.72
2018-05-26T09:07:28.946Z,25.69
2018-05-26T09:08:33.448Z,25.68
2018-05-26T09:09:38.968Z,25.86
2018-05-26T09:10:44.497Z,25.91
2018-05-26T09:11:50.016Z,25.90
2018-05-26T09:12:55.541Z,25.89
2018-05-26T09:14:02.063Z,26.05
2018-05-26T09:15:06.575Z,25.98
2018-05-26T09:16:12.107Z,25.97
2018-05-26T09:17:17.628Z,26.08
2018-05-26T09:18:24.085Z,26.11
2018-05-26T09:19:28.676Z,26.11
2018-05-26T09:20:35.181Z,26.17
2018-05-26T09:21:39.699Z,26.15
2018-05-26T09:22:45.366Z,26.20
2018-05-26T09:23:50.756Z,26.22
2018-05-26T09:24:56.252Z,26.27
2018-05-26T09:26:01.737Z,26.25
2018-05-26T09:27:08.322Z,26.24
2018-05-26T09:28:12.832Z,26.37
2018-05-26T09:29:18.345Z,26.44
2018-05-26T09:30:23.860Z,26.47
2018-05-26T09:31:29.394Z,26.54
2018-05-26T09:32:34.908Z,26.46
2018-05-26T09:33:41.453Z,26.50
2018-05-26T09:34:45.949Z,26.64
2018-05-26T09:35:51.466Z,26.54
2018-05-26T09:36:56.995Z,26.61
2018-05-26T09:38:02.503Z,26.62
2018-05-26T09:39:08.036Z,26.61
2018-05-26T09:40:14.624Z,26.59
2018-05-26T09:41:19.216Z,26.72
2018-05-26T09:42:24.595Z,26.57
2018-05-26T09:43:30.160Z,26.69
2018-05-26T09:44:35.640Z,26.73
2018-05-26T09:45:41.169Z,26.74
2018-05-26T09:46:47.699Z,26.76
2018-05-26T09:47:52.201Z,26.77
2018-05-26T09:48:57.719Z,26.79
2018-05-26T09:50:03.245Z,26.87
2018-05-26T09:51:08.781Z,26.92
2018-05-26T09:52:14.289Z,26.87
2018-05-26T09:53:20.848Z,26.95
2018-05-26T09:54:25.350Z,27.06
2018-05-26T09:55:30.851Z,27.10
2018-05-26T09:56:36.369Z,27.16
2018-05-26T09:57:41.883Z,27.20
2018-05-26T09:58:47.416Z,27.24
2018-05-26T09:59:53.960Z,27.39
2018-05-26T10:00:58.456Z,27.41
2018-05-26T10:02:03.983Z,27.42
2018-05-26T10:03:09.493Z,27.53
2018-05-26T10:04:15.051Z,27.53
2018-05-26T10:05:20.536Z,27.54
2018-05-26T10:06:27.076Z,27.57
2018-05-26T10:07:31.582Z,27.61
2018-05-26T10:08:37.113Z,27.58
2018-05-26T10:09:42.615Z,27.67
2018-05-26T10:10:48.153Z,27.66
2018-05-26T10:11:53.680Z,27.71
2018-05-26T10:13:00.224Z,27.66
2018-05-26T10:14:04.705Z,27.70
2018-05-26T10:15:10.234Z,27.74
2018-05-26T10:16:15.743Z,27.80
2018-05-26T10:17:21.279Z,27.88
2018-05-26T10:18:26.856Z,27.82
2018-05-26T10:19:33.332Z,27.79
2018-05-26T10:20:37.836Z,27.89
2018-05-26T10:21:43.359Z,27.96
2018-05-26T10:22:48.875Z,27.95
2018-05-26T10:23:54.402Z,27.96
2018-05-26T10:24:59.931Z,27.89
2018-05-26T10:26:06.461Z,27.92
2018-05-26T10:27:10.964Z,27.99
2018-05-26T10:28:16.506Z,27.99
2018-05-26T10:29:22.026Z,28.14
2018-05-26T10:30:27.530Z,28.21
2018-05-26T10:31:33.060Z,28.10
2018-05-26T10:32:39.637Z,28.14
2018-05-26T10:33:44.096Z,28.14
2018-05-26T10:34:49.619Z,28.14
2018-05-26T10:35:55.140Z,28.22
2018-05-26T10:37:00.684Z,28.32
2018-05-26T10:38:06.210Z,28.31
2018-05-26T10:39:12.722Z,28.43
2018-05-26T10:40:17.225Z,28.53
2018-05-26T10:41:22.755Z,28.69
2018-05-26T10:42:28.281Z,28.69
2018-05-26T10:43:33.795Z,28.87
2018-05-26T10:44:39.332Z,28.87
2018-05-26T10:45:45.856Z,28.88
2018-05-26T10:46:50.371Z,28.90
2018-05-26T10:47:55.884Z,28.90
2018-05-26T10:49:01.402Z,28.97
2018-05-26T10:50:06.932Z,29.03
2018-05-26T10:51:12.476Z,29.04
2018-05-26T10:52:19.012Z,29.04
2018-05-26T10:53:23.494Z,29.25
2018-05-26T10:54:29.012Z,29.26
2018-05-26T10:55:34.532Z,29.25
2018-05-26T10:56:40.075Z,29.28
2018-05-26T10:57:45.587Z,29.33
2018-05-26T10:58:52.122Z,29.22
2018-05-26T10:59:56.633Z,29.25
2018-05-26T11:01:02.141Z,29.28
2018-05-26T11:02:07.673Z,29.26
2018-05-26T11:03:13.200Z,29.15
2018-05-26T11:04:18.751Z,29.26
2018-05-26T11:05:25.257Z,29.29
2018-05-26T11:06:29.764Z,29.28
2018-05-26T11:07:35.290Z,29.35
2018-05-26T11:08:40.803Z,29.49
2018-05-26T11:09:46.422Z,29.37
2018-05-26T11:10:52.247Z,29.26
2018-05-26T11:11:58.548Z,29.20
2018-05-26T11:13:03.430Z,29.28
2018-05-26T11:14:09.699Z,29.38
2018-05-26T11:15:14.552Z,29.31
2018-05-26T11:16:20.069Z,29.35
2018-05-26T11:17:25.473Z,29.28
2018-05-26T11:18:31.571Z,29.43
2018-05-26T11:19:36.210Z,29.35
2018-05-26T11:20:41.571Z,29.50
2018-05-26T11:21:47.078Z,29.45
2018-05-26T11:22:52.605Z,29.50
2018-05-26T11:23:58.145Z,29.63
2018-05-26T11:25:04.657Z,29.72
2018-05-26T11:26:09.223Z,29.66
2018-05-26T11:27:14.688Z,29.50
2018-05-26T11:28:20.209Z,29.57
2018-05-26T11:29:25.755Z,29.45
2018-05-26T11:30:31.277Z,29.40
2018-05-26T11:31:37.800Z,29.38
2018-05-26T11:32:42.314Z,29.55
2018-05-26T11:33:47.838Z,29.63
2018-05-26T11:34:53.381Z,29.60
2018-05-26T11:35:58.954Z,29.52
2018-05-26T11:37:04.411Z,29.57
2018-05-26T11:38:10.931Z,29.68
2018-05-26T11:39:15.450Z,29.72
2018-05-26T11:40:20.969Z,29.72
2018-05-26T11:41:26.499Z,29.86
2018-05-26T11:42:32.018Z,29.75
2018-05-26T11:43:37.583Z,29.74
2018-05-26T11:44:44.070Z,29.70
2018-05-26T11:45:48.587Z,29.59
2018-05-26T11:46:54.112Z,29.49
2018-05-26T11:47:59.638Z,29.47
2018-05-26T11:49:05.155Z,29.41
2018-05-26T11:50:10.667Z,29.47
2018-05-26T11:51:17.213Z,29.52
2018-05-26T11:52:21.727Z,29.50
2018-05-26T11:53:27.249Z,29.56
2018-05-26T11:54:32.762Z,29.62
2018-05-26T11:55:38.288Z,29.74
2018-05-26T11:56:43.812Z,29.70
2018-05-26T11:57:50.370Z,29.81
2018-05-26T11:58:54.860Z,29.78
2018-05-26T12:00:00.383Z,29.81
2018-05-26T12:01:05.913Z,29.82
2018-05-26T12:02:11.503Z,29.87
2018-05-26T12:03:16.951Z,29.87
2018-05-26T12:04:23.490Z,29.79
2018-05-26T12:05:27.995Z,29.81
2018-05-26T12:06:33.518Z,29.81
2018-05-26T12:07:39.057Z,29.79
2018-05-26T12:08:44.621Z,29.87
2018-05-26T12:09:50.092Z,29.84
2018-05-26T12:10:56.707Z,29.97
2018-05-26T12:12:01.140Z,29.84
2018-05-26T12:13:06.664Z,29.87
2018-05-26T12:14:12.196Z,29.96
2018-05-26T12:15:17.701Z,29.92
2018-05-26T12:16:23.258Z,29.87
2018-05-26T12:17:29.822Z,29.93
2018-05-26T12:18:34.282Z,29.92
2018-05-26T12:19:39.797Z,29.96
2018-05-26T12:20:45.418Z,29.96
2018-05-26T12:21:50.855Z,30.05
2018-05-26T12:22:56.369Z,30.11
2018-05-26T12:24:02.901Z,30.15
2018-05-26T12:25:07.430Z,30.34
2018-05-26T12:26:12.936Z,30.34
2018-05-26T12:27:18.467Z,30.31
2018-05-26T12:28:23.981Z,30.38
2018-05-26T12:29:29.520Z,30.31
2018-05-26T12:30:36.143Z,30.37
2018-05-26T12:31:40.629Z,30.33
2018-05-26T12:32:46.088Z,30.45
2018-05-26T12:33:51.604Z,30.40
2018-05-26T12:34:57.199Z,30.52
2018-05-26T12:36:02.651Z,30.61
2018-05-26T12:37:09.192Z,30.54
2018-05-26T12:38:13.748Z,30.56
2018-05-26T12:39:19.219Z,30.59
2018-05-26T12:40:24.756Z,30.62
2018-05-26T12:41:30.272Z,30.57
2018-05-26T12:42:35.839Z,30.78
2018-05-26T12:43:42.357Z,30.78
2018-05-26T12:44:46.839Z,30.78
2018-05-26T12:45:52.399Z,30.78
2018-05-26T12:46:57.892Z,30.81
2018-05-26T12:48:03.414Z,30.81
2018-05-26T12:49:08.938Z,30.81
2018-05-26T12:50:15.515Z,30.93
2018-05-26T12:51:19.984Z,30.86
2018-05-26T12:52:25.495Z,30.78
2018-05-26T12:53:31.050Z,30.80
2018-05-26T12:54:36.552Z,30.76
2018-05-26T12:55:42.079Z,30.74
2018-05-26T12:56:48.624Z,30.74
2018-05-26T12:57:53.132Z,30.83
2018-05-26T12:58:58.652Z,30.71
2018-05-26T13:00:04.173Z,30.61
2018-05-26T13:01:09.701Z,30.64
2018-05-26T13:02:15.221Z,30.50
2018-05-26T13:03:21.745Z,30.59
2018-05-26T13:04:26.269Z,30.52
2018-05-26T13:05:31.788Z,30.46
2018-05-26T13:06:37.315Z,30.40
2018-05-26T13:07:42.835Z,30.38
2018-05-26T13:08:48.366Z,30.31
2018-05-26T13:09:54.891Z,30.34
2018-05-26T13:10:59.395Z,30.27
2018-05-26T13:12:04.932Z,30.36
2018-05-26T13:13:10.459Z,30.34
2018-05-26T13:14:15.985Z,30.40
2018-05-26T13:15:21.491Z,30.37
2018-05-26T13:16:28.045Z,30.29
2018-05-26T13:17:32.547Z,30.33
2018-05-26T13:18:38.097Z,30.27
2018-05-26T13:19:43.606Z,30.23
2018-05-26T13:20:49.121Z,30.18
2018-05-26T13:21:54.651Z,30.27
2018-05-26T13:23:01.174Z,30.16
2018-05-26T13:24:05.681Z,30.21
2018-05-26T13:25:11.210Z,30.15
2018-05-26T13:26:16.736Z,30.23
2018-05-26T13:27:22.261Z,30.07
2018-05-26T13:28:27.780Z,30.12
2018-05-26T13:29:34.327Z,30.05
2018-05-26T13:30:38.842Z,30.07
2018-05-26T13:31:44.351Z,30.15
2018-05-26T13:32:49.869Z,30.09
2018-05-26T13:33:55.392Z,30.07
2018-05-26T13:35:00.913Z,30.00
2018-05-26T13:36:07.456Z,29.99
2018-05-26T13:37:11.966Z,29.94
2018-05-26T13:38:17.537Z,30.03
2018-05-26T13:39:23.014Z,29.96
2018-05-26T13:40:28.529Z,29.99
2018-05-26T13:41:34.063Z,29.99
2018-05-26T13:42:40.593Z,30.16
2018-05-26T13:43:45.169Z,30.18
2018-05-26T13:44:50.639Z,30.15
2018-05-26T13:45:56.153Z,30.23
2018-05-26T13:47:01.679Z,30.30
2018-05-26T13:48:07.214Z,30.21
2018-05-26T13:49:13.744Z,30.33
2018-05-26T13:50:18.258Z,30.30
2018-05-26T13:51:23.870Z,30.30
2018-05-26T13:52:29.370Z,30.38
2018-05-26T13:53:34.924Z,30.38
2018-05-26T13:54:40.341Z,30.46
2018-05-26T13:55:46.950Z,30.38
2018-05-26T13:56:51.393Z,30.43
2018-05-26T13:57:56.921Z,30.47
2018-05-26T13:59:02.432Z,30.30
2018-05-26T14:00:07.965Z,30.27
2018-05-26T14:01:13.491Z,30.27
2018-05-26T14:02:20.139Z,30.23
2018-05-26T14:03:24.548Z,30.23